Beijing, China

5:55 PM CST on December 08, 2016 (GMT +0800)
Tianning Temple | | Change Station

Elev 171 ft 39.89 °N, 116.34 °E | Updated 3 seconds ago

Clear
Clear
43.3 °F
Feels Like 43 °F
N
1.1
Wind Variable Wind from NNW
Gusts 2.5 mph

Today
High -- | Low -- °F
--% Chance of Precip.
Yesterday
High -- | Low -- °F
Precip. -- in
Pressure 30.12 in
Visibility -9999.0 miles
Clouds
Windchill 43 °F
Dew Point 8 °F
Humidity 23%
Rainfall 0.00 in
Snow Depth Not available.
7:23 AM 4:49 PM
First Quarter, 61% visible
METAR ZBAA 080930Z 33011MPS CAVOK 06/M15 Q1020 NOSIG
Pressure 30.12 in
Visibility -9999.0 miles
Clouds
Windchill 43 °F
Dew Point 8 °F
Humidity 23%
Rainfall 0.00 in
Snow Depth Not available.
7:23 AM 4:49 PM
First Quarter, 61% visible
METAR ZBAA 080930Z 33011MPS CAVOK 06/M15 Q1020 NOSIG

10-Day Weather Forecast

No radar image for this location.
×

Almanac

Astronomy

Dec. 08, 2016 Rise Set
Actual Time
Civil Twilight
Nautical Twilight
Astronomical Twilight
Moon
Length of Visible Light
Length of Day
Tomorrow will be .
, % of the Moon is Illuminated

Today's Extremes

Country Highs Country Lows

Community

WunderPhotos

Upload Photos

1,956,261 photos uploaded!

WunderBlog® & News

Nearby

Air Quality

  Air Quality AQ Index Pollutant
Not available.

Snow Depth

Station Depth Elevation

Earthquake Activity

City Distance Mag. Time & Date
Minimum magnitude displayed is 2.5.

Coastal Water Temperatures

Place Temperature

Stations

Nearby Weather Stations

Station Location Temp. Windchill Dew Point Humidity Wind Precip. Elev Updated Type